Time,TemperatureF,DewpointF,PressureIn,WindDirection,WindDirectionDegrees,WindSpeedMPH,WindSpeedGustMPH,Humidity,HourlyPrecipIn,Conditions,Clouds,dailyrainin,SoftwareType,DateUTC
2013-05-01 00:02:00,73.0,68.0,30.02,WSW,254,0.0,0.0,85,0.00,,,0.00,,2013-05-01 10:02:00,
2013-05-01 00:11:00,73.0,68.0,30.02,WSW,254,0.0,0.0,85,0.00,,,0.00,,2013-05-01 10:11:00,
2013-05-01 00:22:00,73.0,68.0,30.01,WSW,254,0.0,0.0,85,0.00,,,0.00,,2013-05-01 10:22:00,
2013-05-01 00:32:00,73.0,69.0,30.01,WSW,254,0.0,0.0,86,0.00,,,0.00,,2013-05-01 10:32:00,
2013-05-01 00:42:00,73.0,69.0,30.01,WSW,254,0.0,0.0,86,0.00,,,0.00,,2013-05-01 10:42:00,
2013-05-01 00:52:00,73.0,69.0,30.00,WSW,254,0.0,0.0,86,0.00,,,0.00,,2013-05-01 10:52:00,
2013-05-01 01:02:00,73.0,69.0,30.00,WSW,254,0.0,0.0,86,0.00,,,0.00,,2013-05-01 11:02:00,
2013-05-01 01:11:00,73.0,69.0,30.00,WSW,254,0.0,0.0,86,0.00,,,0.00,,2013-05-01 11:11:00,
2013-05-01 01:21:00,73.0,69.0,30.01,WSW,254,0.0,0.0,86,0.00,,,0.00,,2013-05-01 11:21:00,
2013-05-01 01:31:00,73.0,69.0,30.01,WSW,254,0.0,0.0,86,0.00,,,0.00,,2013-05-01 11:31:00,
2013-05-01 01:42:00,73.0,69.0,30.00,WSW,254,0.0,0.0,86,0.00,,,0.00,,2013-05-01 11:42:00,
2013-05-01 01:52:00,73.0,69.0,30.00,WSW,254,0.0,0.0,86,0.00,,,0.00,,2013-05-01 11:52:00,
2013-05-01 02:01:00,73.0,69.0,30.00,WSW,254,0.0,0.0,86,0.00,,,0.00,,2013-05-01 12:01:00,
2013-05-01 02:11:00,73.0,69.0,30.00,WSW,254,0.0,0.0,86,0.00,,,0.00,,2013-05-01 12:11:00,
2013-05-01 02:21:00,73.0,69.0,30.00,WSW,254,0.0,0.0,86,0.00,,,0.00,,2013-05-01 12:21:00,
2013-05-01 02:31:00,73.0,69.0,30.00,WSW,254,0.0,0.0,86,0.00,,,0.00,,2013-05-01 12:31:00,
2013-05-01 02:41:00,73.0,69.0,30.00,WSW,254,0.0,0.0,86,0.00,,,0.00,,2013-05-01 12:41:00,
2013-05-01 02:51:00,73.0,69.0,30.00,WSW,254,0.0,0.0,86,0.00,,,0.00,,2013-05-01 12:51:00,
2013-05-01 15:32:00,84.0,70.0,30.00,ENE,61,8.0,9.0,64,0.00,,,0.00,,2013-05-02 01:32:00,
2013-05-01 15:42:00,84.0,70.0,30.00,ENE,61,8.0,9.0,64,0.00,,,0.00,,2013-05-02 01:42:00,
2013-05-01 15:52:00,83.0,70.0,30.00,ENE,74,5.0,16.0,64,0.00,,,0.00,,2013-05-02 01:52:00,
2013-05-01 16:01:00,83.0,70.0,30.00,ENE,77,5.0,14.0,64,0.00,,,0.00,,2013-05-02 02:01:00,
2013-05-01 16:11:00,83.0,70.0,30.00,ENE,77,5.0,14.0,64,0.00,,,0.00,,2013-05-02 02:11:00,
2013-05-01 16:21:00,83.0,70.0,29.99,East,82,6.0,16.0,65,0.00,,,0.00,,2013-05-02 02:21:00,
2013-05-01 16:31:00,83.0,70.0,30.00,East,82,6.0,13.0,66,0.00,,,0.00,,2013-05-02 02:31:00,
2013-05-01 16:42:00,83.0,70.0,30.00,East,82,6.0,13.0,66,0.00,,,0.00,,2013-05-02 02:42:00,
2013-05-01 16:51:00,83.0,70.0,30.00,East,82,6.0,13.0,66,0.00,,,0.00,,2013-05-02 02:51:00,
2013-05-01 17:01:00,81.0,69.0,30.00,ENE,62,8.0,16.0,67,0.00,,,0.00,,2013-05-02 03:01:00,
2013-05-01 17:11:00,81.0,69.0,30.00,ENE,62,8.0,16.0,67,0.00,,,0.00,,2013-05-02 03:11:00,
2013-05-01 17:21:00,81.0,69.0,30.00,ENE,62,8.0,16.0,67,0.00,,,0.00,,2013-05-02 03:21:00,
2013-05-01 17:32:00,81.0,69.0,30.00,ENE,62,8.0,16.0,67,0.00,,,0.00,,2013-05-02 03:32:00,